If you wish to contribute or participate in the discussions about articles you are invited to join SKYbrary as a registered user

 Actions

El Eden International Airport

From SKYbrary Wiki

SKAR
Airport
ICAO: SKAR – IATA: AXM
Summary
Name El Eden International Airport
Region South America and Caribbean
Territory Colombia CO.gif
Location La Tebaida, Quindio Department
Serving Armenia
Elevation 1,216.152 m
3,990 ft1,216.152 m
Coordinates 4° 27' 10.38" N, 75° 45' 58.67" W
Runways
Designator Length Width Surface ROPS
2/20 2147 m7,043.963 ft
36 m118.11 ft
ASP /


METAR
Observation SKAR 220600Z 35003KT 9999 SCT015 BKN080 20/19 A3003
Station Armenia / El Eden
Date/Time 22 May 2019 06:00:00
Wind direction 350°
Wind speed 03 kts
Lowest cloud amount scattered clouds
Temperature 20°C
Dew point 19°C
Humidity 93%
QNH hPa
Weather condition n/a

El Edén International Airport is an international airport serving Armenia, the capital of the Quindío Department of Colombia. The airport is 13km7.019 nm
13,000 m
42,650.919 ft
southwest of Armenia, near the town of La Tebaida.

Climatology

Oceanic climate (Köppen climate classification Cfb)

Maps

Terrain

Loading map...

Airport Layout

Loading map...


Accidents & Serious Incidents at or in vicinity of SKAR

None on SKYbrary